createdAt,value
2023-05-07T00:02:10.201Z,12.84
2023-05-07T00:04:42.573Z,12.98
2023-05-07T00:07:12.336Z,12.91
2023-05-07T00:09:42.106Z,12.89
2023-05-07T00:12:12.000Z,12.83
2023-05-07T00:14:41.830Z,12.81
2023-05-07T00:17:11.635Z,12.70
2023-05-07T00:19:43.996Z,12.70
2023-05-07T00:22:13.744Z,12.52
2023-05-07T00:24:43.500Z,12.73
2023-05-07T00:27:13.796Z,12.72
2023-05-07T00:29:43.536Z,12.76
2023-05-07T00:32:13.444Z,12.69
2023-05-07T00:34:46.445Z,12.75
2023-05-07T00:37:16.181Z,12.65
2023-05-07T00:39:45.893Z,12.09
2023-05-07T00:42:16.198Z,12.36
2023-05-07T00:44:46.496Z,12.41
2023-05-07T00:47:17.433Z,12.42
2023-05-07T00:49:49.851Z,12.42
2023-05-07T00:52:21.100Z,12.47
2023-05-07T00:54:51.961Z,12.42
2023-05-07T00:57:22.330Z,12.37
2023-05-07T00:59:52.690Z,12.45
2023-05-07T01:02:22.441Z,12.37
2023-05-07T01:04:54.766Z,12.35
2023-05-07T01:07:26.276Z,12.12
2023-05-07T01:09:56.351Z,12.38
2023-05-07T01:12:26.489Z,12.41
2023-05-07T01:14:56.335Z,12.14
2023-05-07T01:17:26.588Z,12.31
2023-05-07T01:19:59.130Z,12.29
2023-05-07T01:22:37.755Z,11.84
2023-05-07T01:25:09.317Z,12.18
2023-05-07T01:27:42.826Z,12.01
2023-05-07T01:30:14.183Z,12.02
2023-05-07T01:32:49.872Z,11.97
2023-05-07T01:35:23.629Z,12.10
2023-05-07T01:37:57.030Z,12.23
2023-05-07T01:40:28.065Z,12.02
2023-05-07T01:42:58.667Z,11.98
2023-05-07T01:45:29.436Z,12.30
2023-05-07T01:47:59.457Z,12.34
2023-05-07T01:50:29.835Z,12.11
2023-05-07T01:53:02.314Z,11.87
2023-05-07T01:55:32.680Z,12.09
2023-05-07T01:58:02.672Z,12.05
2023-05-07T02:00:32.796Z,12.17
2023-05-07T02:03:02.925Z,12.21
2023-05-07T02:05:46.024Z,12.30
2023-05-07T02:08:25.931Z,12.43
2023-05-07T02:10:55.744Z,12.37
2023-05-07T02:13:26.144Z,11.81
2023-05-07T02:15:55.966Z,12.39
2023-05-07T02:18:27.838Z,12.35
2023-05-07T02:20:57.926Z,12.41
2023-05-07T02:23:30.406Z,12.54
2023-05-07T02:26:00.565Z,11.53
2023-05-07T02:28:30.453Z,12.33
2023-05-07T02:31:03.928Z,12.05
2023-05-07T02:33:34.367Z,12.11
2023-05-07T02:36:10.546Z,12.24
2023-05-07T02:38:48.905Z,12.16
2023-05-07T02:41:18.726Z,12.29
2023-05-07T02:43:48.523Z,12.27
2023-05-07T02:46:18.824Z,12.26
2023-05-07T02:48:53.145Z,12.03
2023-05-07T02:51:26.150Z,12.45
2023-05-07T02:54:02.060Z,12.50
2023-05-07T02:56:32.800Z,12.42
2023-05-07T02:59:02.555Z,12.28
2023-05-07T03:01:37.142Z,12.44
2023-05-07T03:04:09.570Z,12.39
2023-05-07T03:06:39.371Z,12.50
2023-05-07T03:09:12.172Z,12.38
2023-05-07T03:11:42.217Z,12.24
2023-05-07T03:14:11.987Z,11.87
2023-05-07T03:16:42.670Z,12.40
2023-05-07T03:19:12.426Z,12.30
2023-05-07T03:21:42.446Z,12.12
2023-05-07T03:24:14.798Z,11.29
2023-05-07T03:26:44.567Z,12.25
2023-05-07T03:29:14.449Z,12.44
2023-05-07T03:31:44.565Z,12.33
2023-05-07T03:34:14.419Z,12.29
2023-05-07T03:36:44.201Z,12.27
2023-05-07T03:39:18.437Z,11.94
2023-05-07T03:41:48.312Z,12.36
2023-05-07T03:44:18.102Z,12.18
2023-05-07T03:46:48.399Z,12.32
2023-05-07T03:49:18.284Z,12.41
2023-05-07T03:51:48.054Z,12.35
2023-05-07T03:54:20.498Z,12.02
2023-05-07T03:56:51.077Z,12.44
2023-05-07T03:59:20.909Z,12.45
2023-05-07T04:01:51.586Z,12.48
2023-05-07T04:04:23.898Z,12.45
2023-05-07T04:06:54.244Z,12.13
2023-05-07T04:09:27.821Z,12.59
2023-05-07T04:11:59.950Z,12.45
2023-05-07T04:14:29.810Z,11.91
2023-05-07T04:16:59.895Z,12.22
2023-05-07T04:19:30.317Z,12.54
2023-05-07T04:22:00.172Z,12.38
2023-05-07T04:24:35.766Z,12.52
2023-05-07T04:27:07.595Z,12.63
2023-05-07T04:29:37.574Z,12.61
2023-05-07T04:32:08.453Z,11.81
2023-05-07T04:34:38.574Z,12.57
2023-05-07T04:37:08.486Z,12.49
2023-05-07T04:39:41.055Z,12.39
2023-05-07T04:42:11.472Z,12.27
2023-05-07T04:44:41.357Z,12.27
2023-05-07T04:47:11.198Z,12.28
2023-05-07T04:49:42.318Z,12.16
2023-05-07T04:52:13.339Z,12.31
2023-05-07T04:54:46.166Z,12.50
2023-05-07T04:57:16.048Z,12.48
2023-05-07T04:59:46.108Z,12.42
2023-05-07T05:02:16.057Z,12.37
2023-05-07T05:04:46.172Z,12.00
2023-05-07T05:07:16.348Z,12.18
2023-05-07T05:09:48.872Z,12.23
2023-05-07T05:12:18.905Z,12.15
2023-05-07T05:14:48.830Z,12.39
2023-05-07T05:17:19.238Z,12.10
2023-05-07T05:19:49.764Z,12.42
2023-05-07T05:22:20.120Z,12.45
2023-05-07T05:24:52.555Z,12.62
2023-05-07T05:27:22.723Z,12.61
2023-05-07T05:29:52.734Z,12.62
2023-05-07T05:32:22.655Z,12.59
2023-05-07T05:34:54.368Z,12.36
2023-05-07T05:37:24.163Z,12.30
2023-05-07T05:39:57.432Z,12.38
2023-05-07T05:42:29.595Z,12.56
2023-05-07T05:44:59.434Z,12.56
2023-05-07T05:47:30.199Z,12.82
2023-05-07T05:50:00.106Z,12.63
2023-05-07T05:52:29.944Z,12.41
2023-05-07T05:55:02.775Z,12.59
2023-05-07T05:57:32.575Z,12.63
2023-05-07T06:00:02.406Z,12.54
2023-05-07T06:02:34.766Z,12.52
2023-05-07T06:05:04.917Z,12.70
2023-05-07T06:07:35.802Z,12.60
2023-05-07T06:10:09.758Z,12.38
2023-05-07T06:12:39.762Z,12.54
2023-05-07T06:15:10.790Z,12.53
2023-05-07T06:17:41.056Z,12.65
2023-05-07T06:20:14.634Z,12.70
2023-05-07T06:22:44.477Z,12.77
2023-05-07T06:25:18.493Z,12.87
2023-05-07T06:27:48.301Z,12.92
2023-05-07T06:30:18.370Z,12.41
2023-05-07T06:32:48.219Z,12.74
2023-05-07T06:35:18.438Z,12.85
2023-05-07T06:37:48.670Z,12.62
2023-05-07T06:40:26.167Z,12.79
2023-05-07T06:42:56.309Z,12.84
2023-05-07T06:45:33.337Z,12.77
2023-05-07T06:48:03.603Z,12.96
2023-05-07T06:50:37.440Z,13.16
2023-05-07T06:53:07.405Z,13.18
2023-05-07T06:55:39.782Z,13.11
2023-05-07T06:58:10.128Z,13.17
2023-05-07T07:00:41.920Z,13.02
2023-05-07T07:03:12.148Z,13.22
2023-05-07T07:05:43.922Z,12.97
2023-05-07T07:08:14.323Z,13.13
2023-05-07T07:10:46.700Z,13.30
2023-05-07T07:13:16.527Z,13.22
2023-05-07T07:15:47.208Z,12.73
2023-05-07T07:18:17.029Z,13.17
2023-05-07T07:20:47.847Z,13.13
2023-05-07T07:23:17.609Z,12.99
2023-05-07T07:25:50.307Z,13.05
2023-05-07T07:28:20.839Z,12.87
2023-05-07T07:30:50.852Z,13.03
2023-05-07T07:33:21.364Z,12.98
2023-05-07T07:35:51.209Z,13.04
2023-05-07T07:38:20.998Z,13.01
2023-05-07T07:40:54.186Z,12.61
2023-05-07T07:43:24.249Z,12.70
2023-05-07T07:45:54.339Z,12.93
2023-05-07T07:48:24.301Z,12.94
2023-05-07T07:50:54.445Z,12.82
2023-05-07T07:53:24.489Z,12.83
2023-05-07T07:55:59.324Z,12.54
2023-05-07T07:58:31.925Z,12.69
2023-05-07T08:01:02.256Z,12.91
2023-05-07T08:03:33.636Z,12.80
2023-05-07T08:06:05.048Z,12.67
2023-05-07T08:08:36.266Z,12.92
2023-05-07T08:11:08.735Z,12.87
2023-05-07T08:13:40.560Z,12.89
2023-05-07T08:16:10.744Z,13.02
2023-05-07T08:18:40.965Z,12.96
2023-05-07T08:21:10.888Z,12.92
2023-05-07T08:23:40.745Z,12.87
2023-05-07T08:26:14.110Z,13.30
2023-05-07T08:28:43.980Z,11.57
2023-05-07T08:31:13.879Z,13.21
2023-05-07T08:33:45.170Z,13.45
2023-05-07T08:36:14.971Z,13.51
2023-05-07T08:38:46.880Z,13.46
2023-05-07T08:41:19.852Z,13.29
2023-05-07T08:43:52.138Z,13.02
2023-05-07T08:46:24.732Z,13.75
2023-05-07T08:48:58.184Z,13.89
2023-05-07T08:51:28.258Z,13.92
2023-05-07T08:53:58.256Z,13.94
2023-05-07T08:56:35.716Z,14.07
2023-05-07T08:59:05.532Z,14.06
2023-05-07T09:01:36.923Z,14.00
2023-05-07T09:04:08.277Z,13.94
2023-05-07T09:06:39.218Z,14.13
2023-05-07T09:09:09.329Z,14.17
2023-05-07T09:11:42.045Z,13.78
2023-05-07T09:14:12.139Z,14.30
2023-05-07T09:16:45.276Z,13.78
2023-05-07T09:19:15.246Z,14.07
2023-05-07T09:21:48.763Z,14.07
2023-05-07T09:24:20.020Z,14.13
2023-05-07T09:26:52.460Z,14.36
2023-05-07T09:29:22.639Z,14.02
2023-05-07T09:31:52.485Z,14.42
2023-05-07T09:34:22.456Z,14.52
2023-05-07T09:36:52.714Z,13.95
2023-05-07T09:39:23.242Z,14.64
2023-05-07T09:41:55.959Z,14.38
2023-05-07T09:44:35.815Z,14.82
2023-05-07T09:47:09.497Z,15.08
2023-05-07T09:49:50.191Z,15.13
2023-05-07T09:52:24.496Z,15.16
2023-05-07T09:55:00.349Z,15.33
2023-05-07T09:57:35.303Z,15.43
2023-05-07T10:00:10.732Z,15.52
2023-05-07T10:02:53.782Z,15.56
2023-05-07T10:05:34.487Z,15.52
2023-05-07T10:08:05.737Z,15.60
2023-05-07T10:10:39.189Z,15.83
2023-05-07T10:13:15.734Z,15.82
2023-05-07T10:15:51.508Z,15.95
2023-05-07T10:18:24.890Z,16.10
2023-05-07T10:20:57.569Z,16.20
2023-05-07T10:23:28.325Z,16.21
2023-05-07T10:26:03.505Z,15.98
2023-05-07T10:28:42.438Z,16.44
2023-05-07T10:31:35.420Z,16.43
2023-05-07T10:34:11.734Z,16.37
2023-05-07T10:36:43.498Z,16.40
2023-05-07T10:39:14.006Z,16.37
2023-05-07T10:41:44.310Z,16.65
2023-05-07T10:44:29.147Z,16.63
2023-05-07T10:47:10.720Z,16.46
2023-05-07T10:50:27.217Z,16.46
2023-05-07T10:53:25.457Z,16.53
2023-05-07T10:56:32.661Z,16.62
2023-05-07T10:59:35.169Z,16.65
2023-05-07T11:02:15.533Z,16.47
2023-05-07T11:05:26.264Z,16.27
2023-05-07T11:08:08.621Z,16.58
2023-05-07T11:10:55.069Z,16.60
2023-05-07T11:13:48.586Z,16.50
2023-05-07T11:16:29.109Z,16.81
2023-05-07T11:19:57.661Z,16.88
2023-05-07T11:22:44.702Z,16.98
2023-05-07T11:25:29.551Z,16.79
2023-05-07T11:28:11.541Z,16.15
2023-05-07T11:30:47.621Z,16.52
2023-05-07T11:33:21.343Z,16.47
2023-05-07T11:35:54.518Z,16.59
2023-05-07T11:38:29.966Z,16.66
2023-05-07T11:41:01.833Z,16.70
2023-05-07T11:43:32.025Z,16.70
2023-05-07T11:46:11.145Z,16.96
2023-05-07T11:48:42.647Z,17.09
2023-05-07T11:51:13.294Z,17.15
2023-05-07T11:53:46.629Z,16.99
2023-05-07T11:56:17.870Z,17.24
2023-05-07T11:58:49.898Z,17.25
2023-05-07T12:01:20.482Z,17.37
2023-05-07T12:03:50.349Z,17.52
2023-05-07T12:06:20.888Z,17.71
2023-05-07T12:08:53.324Z,17.49
2023-05-07T12:11:27.434Z,17.64
2023-05-07T12:13:59.877Z,17.49
2023-05-07T12:16:30.401Z,17.36
2023-05-07T12:19:00.779Z,17.64
2023-05-07T12:21:30.831Z,17.78
2023-05-07T12:24:03.275Z,17.57
2023-05-07T12:26:33.030Z,17.71
2023-05-07T12:29:02.820Z,17.79
2023-05-07T12:31:32.668Z,18.01
2023-05-07T12:34:02.435Z,17.87
2023-05-07T12:36:40.701Z,17.62
2023-05-07T12:39:13.441Z,17.39
2023-05-07T12:41:59.704Z,17.17
2023-05-07T12:44:33.932Z,16.85
2023-05-07T12:47:06.069Z,17.32
2023-05-07T12:49:39.881Z,17.27
2023-05-07T12:52:10.055Z,17.35
2023-05-07T12:54:42.526Z,17.39
2023-05-07T12:57:13.631Z,17.53
2023-05-07T12:59:44.655Z,17.97
2023-05-07T13:02:14.471Z,17.68
2023-05-07T13:04:45.167Z,17.51
2023-05-07T13:07:14.897Z,17.36
2023-05-07T13:09:49.139Z,17.17
2023-05-07T13:12:18.887Z,17.23
2023-05-07T13:14:48.652Z,17.36
2023-05-07T13:17:19.871Z,17.55
2023-05-07T13:19:49.770Z,17.43
2023-05-07T13:22:19.497Z,17.61
2023-05-07T13:24:51.807Z,18.04
2023-05-07T13:27:21.860Z,17.32
2023-05-07T13:29:51.628Z,17.58
2023-05-07T13:32:21.441Z,17.55
2023-05-07T13:34:51.597Z,17.67
2023-05-07T13:37:21.406Z,17.72
2023-05-07T13:39:53.781Z,17.45
2023-05-07T13:42:23.498Z,17.57
2023-05-07T13:44:53.228Z,17.88
2023-05-07T13:47:24.650Z,17.80
2023-05-07T13:49:54.548Z,17.70
2023-05-07T13:52:24.576Z,17.63
2023-05-07T13:54:57.694Z,17.63
2023-05-07T13:57:27.466Z,17.59
2023-05-07T13:59:57.251Z,17.89
2023-05-07T14:02:27.058Z,17.94
2023-05-07T14:04:56.905Z,18.05
2023-05-07T14:07:26.673Z,17.97
2023-05-07T14:09:59.108Z,18.03
2023-05-07T14:12:29.009Z,17.97
2023-05-07T14:14:58.776Z,17.58
2023-05-07T14:17:28.804Z,17.69
2023-05-07T14:19:58.792Z,17.68
2023-05-07T14:22:28.569Z,17.61
2023-05-07T14:25:06.811Z,17.85
2023-05-07T14:27:37.316Z,17.76
2023-05-07T14:30:07.728Z,17.33
2023-05-07T14:32:38.131Z,17.61
2023-05-07T14:35:08.837Z,17.44
2023-05-07T14:37:38.653Z,17.31
2023-05-07T14:40:12.898Z,17.61
2023-05-07T14:42:43.846Z,17.77
2023-05-07T14:45:14.566Z,17.84
2023-05-07T14:47:44.897Z,17.61
2023-05-07T14:50:14.665Z,17.50
2023-05-07T14:52:44.470Z,17.34
2023-05-07T14:55:16.920Z,17.48
2023-05-07T14:57:46.703Z,17.44
2023-05-07T15:00:17.341Z,17.42
2023-05-07T15:02:47.357Z,17.24
2023-05-07T15:05:18.612Z,17.34
2023-05-07T15:07:48.360Z,17.29
2023-05-07T15:10:20.798Z,17.49
2023-05-07T15:12:50.861Z,17.51
2023-05-07T15:15:20.665Z,17.36
2023-05-07T15:17:51.197Z,17.39
2023-05-07T15:20:21.364Z,17.19
2023-05-07T15:22:51.155Z,17.10
2023-05-07T15:25:23.559Z,17.03
2023-05-07T15:27:53.567Z,16.89
2023-05-07T15:30:23.326Z,16.95
2023-05-07T15:32:53.129Z,17.14
2023-05-07T15:35:23.285Z,16.98
2023-05-07T15:37:53.525Z,17.12
2023-05-07T15:40:26.016Z,17.33
2023-05-07T15:42:58.565Z,17.07
2023-05-07T15:45:28.421Z,17.14
2023-05-07T15:47:58.280Z,16.93
2023-05-07T15:50:29.714Z,16.60
2023-05-07T15:52:59.477Z,16.31
2023-05-07T15:55:32.256Z,16.41
2023-05-07T15:58:02.001Z,16.47
2023-05-07T16:00:32.065Z,16.39
2023-05-07T16:03:02.019Z,16.48
2023-05-07T16:05:31.872Z,16.15
2023-05-07T16:08:01.657Z,16.30
2023-05-07T16:10:34.118Z,16.29
2023-05-07T16:13:04.138Z,16.17
2023-05-07T16:15:33.936Z,16.39
2023-05-07T16:18:03.733Z,16.42
2023-05-07T16:20:33.590Z,16.45
2023-05-07T16:23:03.852Z,16.40
2023-05-07T16:25:36.208Z,16.46
2023-05-07T16:28:06.084Z,16.48
2023-05-07T16:30:35.898Z,16.54
2023-05-07T16:33:05.779Z,16.48
2023-05-07T16:35:35.567Z,16.43
2023-05-07T16:38:10.229Z,16.42
2023-05-07T16:40:44.758Z,16.46
2023-05-07T16:43:14.617Z,16.47
2023-05-07T16:45:44.323Z,16.37
2023-05-07T16:48:14.054Z,16.46
2023-05-07T16:50:44.699Z,16.49
2023-05-07T16:53:14.996Z,16.45
2023-05-07T16:55:47.363Z,16.50
2023-05-07T16:58:17.264Z,16.41
2023-05-07T17:00:50.766Z,16.46
2023-05-07T17:03:21.580Z,16.53
2023-05-07T17:05:51.438Z,16.23
2023-05-07T17:08:21.178Z,16.44
2023-05-07T17:10:53.506Z,16.47
2023-05-07T17:13:23.351Z,16.12
2023-05-07T17:15:53.196Z,16.23
2023-05-07T17:18:22.957Z,16.15
2023-05-07T17:20:52.687Z,15.99
2023-05-07T17:23:22.660Z,15.87
2023-05-07T17:25:54.968Z,15.74
2023-05-07T17:28:24.693Z,15.68
2023-05-07T17:30:54.492Z,15.73
2023-05-07T17:33:24.307Z,15.87
2023-05-07T17:35:56.119Z,15.82
2023-05-07T17:38:26.040Z,15.90
2023-05-07T17:40:58.459Z,15.88
2023-05-07T17:43:28.244Z,15.74
2023-05-07T17:45:58.058Z,15.69
2023-05-07T17:48:28.072Z,15.46
2023-05-07T17:51:04.108Z,15.46
2023-05-07T17:53:34.024Z,15.47
2023-05-07T17:56:06.450Z,15.43
2023-05-07T17:58:46.304Z,15.38
2023-05-07T18:01:26.424Z,15.46
2023-05-07T18:03:56.259Z,15.46
2023-05-07T18:06:26.113Z,15.28
2023-05-07T18:08:57.049Z,15.51
2023-05-07T18:11:29.485Z,15.18
2023-05-07T18:13:59.243Z,15.45
2023-05-07T18:16:29.281Z,15.31
2023-05-07T18:18:59.104Z,15.15
2023-05-07T18:21:28.930Z,15.17
2023-05-07T18:23:58.727Z,15.23
2023-05-07T18:26:31.064Z,15.07
2023-05-07T18:29:00.820Z,14.85
2023-05-07T18:31:30.583Z,14.98
2023-05-07T18:34:00.329Z,14.83
2023-05-07T18:36:30.062Z,15.04
2023-05-07T18:38:59.791Z,15.07
2023-05-07T18:41:32.093Z,14.98
2023-05-07T18:44:01.850Z,14.73
2023-05-07T18:46:31.890Z,14.75
2023-05-07T18:49:01.659Z,14.76
2023-05-07T18:51:31.458Z,14.75
2023-05-07T18:54:02.283Z,14.32
2023-05-07T18:56:34.694Z,14.24
2023-05-07T18:59:04.519Z,14.21
2023-05-07T19:01:34.414Z,14.36
2023-05-07T19:04:04.382Z,14.36
2023-05-07T19:06:34.356Z,14.20
2023-05-07T19:09:04.994Z,14.22
2023-05-07T19:11:37.370Z,14.22
2023-05-07T19:14:07.581Z,14.13
2023-05-07T19:16:37.465Z,14.12
2023-05-07T19:19:07.727Z,14.08
2023-05-07T19:21:37.521Z,14.07
2023-05-07T19:24:07.727Z,13.81
2023-05-07T19:26:40.142Z,14.00
2023-05-07T19:29:17.298Z,14.03
2023-05-07T19:31:47.683Z,14.09
2023-05-07T19:34:17.667Z,13.86
2023-05-07T19:36:47.432Z,13.77
2023-05-07T19:39:18.681Z,13.91
2023-05-07T19:41:51.665Z,13.95
2023-05-07T19:44:21.442Z,13.82
2023-05-07T19:46:52.774Z,13.86
2023-05-07T19:49:25.384Z,13.81
2023-05-07T19:51:55.156Z,13.72
2023-05-07T19:54:24.929Z,13.89
2023-05-07T19:56:58.166Z,13.79
2023-05-07T19:59:28.342Z,13.57
2023-05-07T20:01:58.271Z,13.73
2023-05-07T20:04:32.564Z,13.68
2023-05-07T20:07:02.495Z,13.66
2023-05-07T20:09:32.344Z,13.64
2023-05-07T20:12:04.828Z,13.35
2023-05-07T20:14:34.866Z,13.48
2023-05-07T20:17:04.731Z,13.70
2023-05-07T20:19:34.517Z,13.61
2023-05-07T20:22:04.323Z,13.57
2023-05-07T20:24:34.109Z,13.51
2023-05-07T20:27:06.698Z,13.81
2023-05-07T20:29:36.762Z,13.74
2023-05-07T20:32:06.746Z,13.67
2023-05-07T20:34:36.579Z,13.70
2023-05-07T20:37:06.343Z,13.76
2023-05-07T20:39:36.132Z,13.77
2023-05-07T20:42:08.623Z,13.63
2023-05-07T20:44:38.522Z,13.60
2023-05-07T20:47:08.478Z,13.67
2023-05-07T20:49:38.227Z,13.52
2023-05-07T20:52:08.429Z,13.60
2023-05-07T20:54:40.464Z,13.59
2023-05-07T20:57:12.809Z,13.46
2023-05-07T20:59:42.901Z,13.38
2023-05-07T21:02:12.708Z,13.42
2023-05-07T21:04:42.582Z,13.44
2023-05-07T21:07:12.486Z,13.29
2023-05-07T21:09:42.623Z,13.15
2023-05-07T21:12:14.979Z,13.22
2023-05-07T21:14:44.758Z,13.06
2023-05-07T21:17:14.591Z,13.20
2023-05-07T21:19:44.394Z,13.20
2023-05-07T21:22:14.171Z,13.11
2023-05-07T21:24:44.099Z,12.76
2023-05-07T21:27:16.539Z,13.04
2023-05-07T21:29:46.371Z,12.99
2023-05-07T21:32:16.126Z,13.01
2023-05-07T21:34:46.759Z,13.13
2023-05-07T21:37:16.872Z,12.99
2023-05-07T21:39:46.669Z,13.08
2023-05-07T21:42:19.869Z,13.12
2023-05-07T21:44:51.105Z,13.14
2023-05-07T21:47:21.128Z,13.12
2023-05-07T21:49:50.905Z,13.01
2023-05-07T21:52:26.230Z,12.95
2023-05-07T21:54:56.147Z,12.72
2023-05-07T21:57:28.514Z,12.97
2023-05-07T21:59:58.263Z,12.99
2023-05-07T22:02:28.178Z,12.94
2023-05-07T22:04:58.060Z,13.01
2023-05-07T22:07:27.920Z,12.90
2023-05-07T22:09:57.669Z,13.05
2023-05-07T22:12:30.058Z,13.07
2023-05-07T22:14:59.894Z,13.03
2023-05-07T22:17:29.724Z,13.01
2023-05-07T22:19:59.530Z,12.94
2023-05-07T22:22:29.274Z,12.90
2023-05-07T22:24:59.016Z,12.96
2023-05-07T22:27:32.466Z,12.92
2023-05-07T22:30:02.256Z,12.88
2023-05-07T22:32:33.376Z,12.82
2023-05-07T22:35:03.554Z,12.88
2023-05-07T22:37:33.830Z,12.88
2023-05-07T22:40:03.733Z,12.91
2023-05-07T22:42:36.607Z,12.92
2023-05-07T22:45:06.830Z,12.78
2023-05-07T22:47:36.637Z,12.74
2023-05-07T22:50:07.558Z,12.75
2023-05-07T22:52:37.844Z,12.49
2023-05-07T22:55:08.675Z,12.12
2023-05-07T22:57:41.071Z,12.47
2023-05-07T23:00:12.543Z,12.53
2023-05-07T23:02:42.505Z,12.52
2023-05-07T23:05:12.405Z,12.54
2023-05-07T23:07:42.227Z,12.58
2023-05-07T23:10:12.611Z,12.37
2023-05-07T23:12:49.362Z,12.42
2023-05-07T23:15:19.655Z,12.17
2023-05-07T23:17:50.112Z,12.04
2023-05-07T23:20:20.314Z,12.06
2023-05-07T23:22:50.059Z,12.13
2023-05-07T23:25:20.110Z,12.12
2023-05-07T23:27:52.532Z,11.87
2023-05-07T23:30:22.547Z,12.00
2023-05-07T23:32:52.399Z,11.85
2023-05-07T23:35:22.483Z,11.71
2023-05-07T23:37:52.294Z,11.75
2023-05-07T23:40:22.070Z,11.87
2023-05-07T23:42:54.466Z,11.78
2023-05-07T23:45:24.309Z,11.68
2023-05-07T23:47:54.298Z,11.74
2023-05-07T23:50:24.352Z,11.75
2023-05-07T23:52:54.095Z,11.70
2023-05-07T23:55:23.856Z,11.69
2023-05-07T23:57:56.226Z,11.39
